FACT/CPT METAR and TAF weather

Enter ICAO airport designator
Station Type Date Time Source
FACT METAR 2020/09/18 20:00 UTC NOAA

FACT 182000Z 16006KT 9999 FEW035 12/10 Q1023 NOSIG


Station Type Date Time Source
FACT Decoded METAR 2020/09/18 20:00 UTC NOAA

Cape Town, Cape Town International Airport, South Africa (FACT) 33-59S 018-36E 0M
Sep 18, 2020 - 04:00 PM EDT / 2020.09.18 2000 UTC
Wind: from the SSE (160 degrees) at 7 MPH (6 KT):0
Visibility: greater than 7 mile(s):0
Sky conditions: mostly clear
Temperature: 53 F (12 C)
Dew Point: 50 F (10 C)
Relative Humidity: 87%
Pressure (altimeter): 30.21 in. Hg (1023 hPa)
ob: FACT 182000Z 16006KT 9999 FEW035 12/10 Q1023 NOSIG
cycle: 20

Station Type Date Time Source
FACT TAF 2020/09/18 18:10 UTC NOAA

TAF FACT 181600Z 1818/1924 16006KT 9999 SCT012 BKN025 TX19/1912Z TN08/1905Z
FM182200 18010KT 9999 FEW025
FM192000 32008KT 9999 SCT012 BKN025

Example: see airport list